createdAt,value
2023-05-20T00:01:50.455Z,14.65
2023-05-20T00:04:17.455Z,14.10
2023-05-20T00:06:44.792Z,14.77
2023-05-20T00:09:11.722Z,12.57
2023-05-20T00:11:39.886Z,11.60
2023-05-20T00:14:06.921Z,11.80
2023-05-20T00:16:34.672Z,9.45
2023-05-20T00:19:01.656Z,9.68
2023-05-20T00:21:29.762Z,11.57
2023-05-20T00:23:56.842Z,11.27
2023-05-20T00:26:24.137Z,12.52
2023-05-20T00:28:54.955Z,11.57
2023-05-20T00:31:22.383Z,9.95
2023-05-20T00:33:49.470Z,10.85
2023-05-20T00:36:16.761Z,11.20
2023-05-20T00:38:43.827Z,10.18
2023-05-20T00:41:11.123Z,8.25
2023-05-20T00:43:38.068Z,9.25
2023-05-20T00:46:05.824Z,8.52
2023-05-20T00:48:43.896Z,10.43
2023-05-20T00:51:14.158Z,10.82
2023-05-20T00:53:42.505Z,9.55
2023-05-20T00:56:10.017Z,10.88
2023-05-20T00:58:39.556Z,10.02
2023-05-20T01:01:07.059Z,9.07
2023-05-20T01:03:34.910Z,9.55
2023-05-20T01:06:03.220Z,9.00
2023-05-20T01:08:30.575Z,9.20
2023-05-20T01:11:09.581Z,9.95
2023-05-20T01:13:54.227Z,9.18
2023-05-20T01:16:24.758Z,10.07
2023-05-20T01:18:55.954Z,10.02
2023-05-20T01:21:23.748Z,10.07
2023-05-20T01:23:51.204Z,10.18
2023-05-20T01:26:19.509Z,8.98
2023-05-20T01:28:46.708Z,8.63
2023-05-20T01:31:33.837Z,10.38
2023-05-20T01:34:02.332Z,11.77
2023-05-20T01:36:31.469Z,8.77
2023-05-20T01:39:01.030Z,10.55
2023-05-20T01:41:29.736Z,10.50
2023-05-20T01:43:57.492Z,11.43
2023-05-20T01:46:24.994Z,11.88
2023-05-20T01:48:52.930Z,7.90
2023-05-20T01:51:20.297Z,12.65
2023-05-20T01:53:47.340Z,13.73
2023-05-20T01:56:15.010Z,14.25
2023-05-20T01:58:42.085Z,12.43
2023-05-20T02:01:09.486Z,12.40
2023-05-20T02:03:36.466Z,15.10
2023-05-20T02:06:03.891Z,16.90
2023-05-20T02:08:31.148Z,15.80
2023-05-20T02:11:00.225Z,14.82
2023-05-20T02:13:28.118Z,12.00
2023-05-20T02:15:55.660Z,16.40
2023-05-20T02:18:26.431Z,15.45
2023-05-20T02:20:53.823Z,14.13
2023-05-20T02:23:21.290Z,10.88
2023-05-20T02:25:48.476Z,15.65
2023-05-20T02:28:16.148Z,14.15
2023-05-20T02:30:43.516Z,13.32
2023-05-20T02:33:10.478Z,12.18
2023-05-20T02:35:37.898Z,8.68
2023-05-20T02:38:04.961Z,14.75
2023-05-20T02:40:32.337Z,13.27
2023-05-20T02:43:01.794Z,13.93
2023-05-20T02:45:30.008Z,15.70
2023-05-20T02:47:57.108Z,11.65
2023-05-20T02:50:25.144Z,16.05
2023-05-20T02:52:52.326Z,12.38
2023-05-20T02:55:19.774Z,12.70
2023-05-20T02:57:47.018Z,13.63
2023-05-20T03:00:15.135Z,12.10
2023-05-20T03:02:42.329Z,14.27
2023-05-20T03:05:10.737Z,15.82
2023-05-20T03:07:37.930Z,14.18
2023-05-20T03:10:09.264Z,14.63
2023-05-20T03:12:39.153Z,11.70
2023-05-20T03:15:07.552Z,10.52
2023-05-20T03:17:36.022Z,10.70
2023-05-20T03:20:04.050Z,13.52
2023-05-20T03:22:31.235Z,15.30
2023-05-20T03:25:00.402Z,13.75
2023-05-20T03:27:29.035Z,14.52
2023-05-20T03:29:56.649Z,14.23
2023-05-20T03:32:24.675Z,11.25
2023-05-20T03:34:52.345Z,14.18
2023-05-20T03:37:19.265Z,22.83
2023-05-20T03:39:46.516Z,14.25
2023-05-20T03:42:13.794Z,14.57
2023-05-20T03:44:41.524Z,14.82
2023-05-20T03:47:08.783Z,11.02
2023-05-20T03:49:36.208Z,11.88
2023-05-20T03:52:04.705Z,16.20
2023-05-20T03:54:32.382Z,11.15
2023-05-20T03:57:00.948Z,9.73
2023-05-20T03:59:29.380Z,10.02
2023-05-20T04:01:57.366Z,14.18
2023-05-20T04:04:25.262Z,9.82
2023-05-20T04:06:52.249Z,8.95
2023-05-20T04:09:19.688Z,13.38
2023-05-20T04:11:46.648Z,10.05
2023-05-20T04:14:13.920Z,15.18
2023-05-20T04:16:41.677Z,17.35
2023-05-20T04:19:08.955Z,14.07
2023-05-20T04:21:35.932Z,13.10
2023-05-20T04:24:03.367Z,10.57
2023-05-20T04:26:30.523Z,14.00
2023-05-20T04:28:59.066Z,14.63
2023-05-20T04:31:27.017Z,17.15
2023-05-20T04:33:54.884Z,15.57
2023-05-20T04:36:22.878Z,16.38
2023-05-20T04:38:50.297Z,15.52
2023-05-20T04:41:17.378Z,16.35
2023-05-20T04:43:45.987Z,16.60
2023-05-20T04:46:14.167Z,14.63
2023-05-20T04:48:48.037Z,16.48
2023-05-20T04:51:15.041Z,15.30
2023-05-20T04:53:43.616Z,15.45
2023-05-20T04:56:13.528Z,14.05
2023-05-20T04:58:41.513Z,14.55
2023-05-20T05:01:09.408Z,14.40
2023-05-20T05:03:37.034Z,14.68
2023-05-20T05:06:04.702Z,14.40
2023-05-20T05:08:31.999Z,14.25
2023-05-20T05:11:00.218Z,13.27
2023-05-20T05:13:27.648Z,11.63
2023-05-20T05:16:05.328Z,12.93
2023-05-20T05:18:49.561Z,14.30
2023-05-20T05:21:17.173Z,15.43
2023-05-20T05:23:46.018Z,15.38
2023-05-20T05:26:13.425Z,11.52
2023-05-20T05:28:43.480Z,14.65
2023-05-20T05:31:10.578Z,15.93
2023-05-20T05:33:37.872Z,13.05
2023-05-20T05:36:23.582Z,11.25
2023-05-20T05:38:57.321Z,12.73
2023-05-20T05:41:25.048Z,15.10
2023-05-20T05:43:53.000Z,14.98
2023-05-20T05:46:20.093Z,14.23
2023-05-20T05:48:50.569Z,15.13
2023-05-20T05:51:19.380Z,15.88
2023-05-20T05:55:06.189Z,14.57
2023-05-20T05:57:33.718Z,12.38
2023-05-20T06:00:05.222Z,15.20
2023-05-20T06:03:36.890Z,14.90
2023-05-20T06:12:42.219Z,13.02
2023-05-20T06:15:11.178Z,14.45
2023-05-20T06:18:58.003Z,15.13
2023-05-20T06:21:26.212Z,14.32
2023-05-20T06:23:53.606Z,14.95
2023-05-20T06:26:21.118Z,12.65
2023-05-20T06:28:48.151Z,12.73
2023-05-20T06:31:15.707Z,14.23
2023-05-20T06:33:43.835Z,13.65
2023-05-20T06:36:13.386Z,14.60
2023-05-20T06:38:41.137Z,14.88
2023-05-20T06:41:08.635Z,14.85
2023-05-20T06:43:35.708Z,14.35
2023-05-20T06:46:10.738Z,14.23
2023-05-20T06:48:49.005Z,14.68
2023-05-20T06:51:17.556Z,14.98
2023-05-20T06:53:47.160Z,14.75
2023-05-20T06:56:15.628Z,15.02
2023-05-20T06:58:43.465Z,14.55
2023-05-20T07:01:10.996Z,14.90
2023-05-20T07:03:38.879Z,15.27
2023-05-20T07:06:06.460Z,14.88
2023-05-20T07:08:33.460Z,13.90
2023-05-20T07:11:01.397Z,12.93
2023-05-20T07:13:31.333Z,14.98
2023-05-20T07:15:59.418Z,14.32
2023-05-20T07:18:28.375Z,14.45
2023-05-20T07:20:57.706Z,13.75
2023-05-20T07:23:35.330Z,13.10
2023-05-20T07:26:03.184Z,13.00
2023-05-20T07:28:30.841Z,13.68
2023-05-20T07:31:00.216Z,11.70
2023-05-20T07:33:29.931Z,14.00
2023-05-20T07:35:58.235Z,13.55
2023-05-20T07:38:25.174Z,13.23
2023-05-20T07:40:58.034Z,13.18
2023-05-20T07:43:25.123Z,13.80
2023-05-20T07:45:52.711Z,12.88
2023-05-20T07:48:19.916Z,12.63
2023-05-20T07:50:47.214Z,12.88
2023-05-20T07:53:15.301Z,12.40
2023-05-20T07:55:42.595Z,11.05
2023-05-20T07:58:10.616Z,12.20
2023-05-20T08:00:37.912Z,10.70
2023-05-20T08:03:08.675Z,12.57
2023-05-20T08:05:47.608Z,12.07
2023-05-20T08:08:16.195Z,12.15
2023-05-20T08:10:57.608Z,11.20
2023-05-20T08:13:26.388Z,11.82
2023-05-20T08:15:54.869Z,10.57
2023-05-20T08:18:23.112Z,11.32
2023-05-20T08:20:51.325Z,10.05
2023-05-20T08:23:18.425Z,10.77
2023-05-20T08:25:48.406Z,10.77
2023-05-20T08:28:17.036Z,11.55
2023-05-20T08:30:45.506Z,10.70
2023-05-20T08:33:13.013Z,10.82
2023-05-20T08:35:40.737Z,10.60
2023-05-20T08:39:25.552Z,10.50
2023-05-20T08:41:53.084Z,11.50
2023-05-20T08:44:22.705Z,9.75
2023-05-20T08:46:51.863Z,10.05
2023-05-20T08:49:20.683Z,10.75
2023-05-20T08:51:48.288Z,10.52
2023-05-20T08:54:16.858Z,10.52
2023-05-20T08:56:44.357Z,10.82
2023-05-20T08:59:11.646Z,10.75
2023-05-20T09:01:45.960Z,10.00
2023-05-20T09:04:13.081Z,10.90
2023-05-20T09:06:47.415Z,12.57
2023-05-20T09:09:15.596Z,12.50
2023-05-20T09:11:43.265Z,12.52
2023-05-20T09:14:10.292Z,12.38
2023-05-20T09:16:40.028Z,11.02
2023-05-20T09:19:07.566Z,12.00
2023-05-20T09:21:37.461Z,10.63
2023-05-20T09:24:04.838Z,12.98
2023-05-20T09:26:32.797Z,13.38
2023-05-20T09:29:00.716Z,12.38
2023-05-20T09:31:33.165Z,12.88
2023-05-20T09:34:03.436Z,13.98
2023-05-20T09:36:34.618Z,13.93
2023-05-20T09:39:05.159Z,14.10
2023-05-20T09:41:56.593Z,13.90
2023-05-20T09:44:25.171Z,14.25
2023-05-20T09:46:54.360Z,13.07
2023-05-20T09:49:23.277Z,13.32
2023-05-20T09:51:51.320Z,14.20
2023-05-20T09:59:41.052Z,15.43
2023-05-20T10:02:09.077Z,13.95
2023-05-20T10:04:42.765Z,15.00
2023-05-20T10:08:03.073Z,13.32
2023-05-20T10:11:47.388Z,15.32
2023-05-20T10:14:32.468Z,16.02
2023-05-20T10:17:40.249Z,17.70
2023-05-20T10:20:19.952Z,16.25
2023-05-20T10:22:58.993Z,16.38
2023-05-20T10:25:31.111Z,14.13
2023-05-20T10:28:08.850Z,16.27
2023-05-20T10:30:37.230Z,17.10
2023-05-20T10:33:07.071Z,19.27
2023-05-20T10:35:34.825Z,18.60
2023-05-20T10:38:13.010Z,18.65
2023-05-20T10:41:15.076Z,15.98
2023-05-20T10:43:44.278Z,16.50
2023-05-20T10:46:32.573Z,16.75
2023-05-20T10:49:35.716Z,17.92
2023-05-20T10:52:03.565Z,15.25
2023-05-20T10:54:37.262Z,17.20
2023-05-20T10:57:09.312Z,19.02
2023-05-20T10:59:37.172Z,18.58
2023-05-20T11:02:05.018Z,17.38
2023-05-20T11:04:33.355Z,18.00
2023-05-20T11:07:00.683Z,17.60
2023-05-20T11:10:21.460Z,15.80
2023-05-20T11:12:49.891Z,17.27
2023-05-20T11:15:17.960Z,17.20
2023-05-20T11:17:56.121Z,15.70
2023-05-20T11:20:24.936Z,16.77
2023-05-20T11:22:53.359Z,15.13
2023-05-20T11:25:47.678Z,15.95
2023-05-20T11:28:40.013Z,15.10
2023-05-20T11:31:07.304Z,16.17
2023-05-20T11:33:34.543Z,14.27
2023-05-20T11:36:03.609Z,15.40
2023-05-20T11:38:32.649Z,16.00
2023-05-20T11:40:59.721Z,15.75
2023-05-20T11:43:27.064Z,14.75
2023-05-20T11:45:59.379Z,14.68
2023-05-20T11:48:27.292Z,15.40
2023-05-20T11:50:56.822Z,12.93
2023-05-20T11:53:25.266Z,12.48
2023-05-20T11:56:02.201Z,14.73
2023-05-20T11:58:31.361Z,13.02
2023-05-20T12:01:05.792Z,14.45
2023-05-20T12:03:41.539Z,15.52
2023-05-20T12:06:12.332Z,12.10
2023-05-20T12:08:39.547Z,12.63
2023-05-20T12:11:06.580Z,14.57
2023-05-20T12:13:35.474Z,13.63
2023-05-20T12:17:21.572Z,15.07
2023-05-20T12:19:48.969Z,15.00
2023-05-20T12:22:16.269Z,14.32
2023-05-20T12:24:43.558Z,14.23
2023-05-20T12:27:10.502Z,15.45
2023-05-20T12:29:38.007Z,15.38
2023-05-20T12:32:05.555Z,13.38
2023-05-20T12:34:33.145Z,14.55
2023-05-20T12:37:00.127Z,15.85
2023-05-20T12:39:28.284Z,15.00
2023-05-20T12:46:26.484Z,12.98
2023-05-20T12:49:11.663Z,15.43
2023-05-20T12:51:38.965Z,16.50
2023-05-20T12:54:06.761Z,14.40
2023-05-20T12:56:34.030Z,15.95
2023-05-20T13:03:35.743Z,14.93
2023-05-20T13:06:04.164Z,15.07
2023-05-20T13:08:31.456Z,15.38
2023-05-20T13:10:58.416Z,14.63
2023-05-20T13:13:25.727Z,14.95
2023-05-20T13:15:53.058Z,13.02
2023-05-20T13:18:23.786Z,13.35
2023-05-20T13:20:50.931Z,14.10
2023-05-20T13:23:18.172Z,13.38
2023-05-20T13:25:45.197Z,13.77
2023-05-20T13:33:18.832Z,12.43
2023-05-20T13:35:46.452Z,11.73
2023-05-20T13:38:13.718Z,10.25
2023-05-20T13:40:40.718Z,11.05
2023-05-20T13:43:08.001Z,13.05
2023-05-20T13:45:35.009Z,11.70
2023-05-20T13:48:02.371Z,11.80
2023-05-20T13:50:57.898Z,12.30
2023-05-20T13:53:25.407Z,11.45
2023-05-20T13:57:08.086Z,11.27
2023-05-20T14:04:05.571Z,11.32
2023-05-20T14:06:32.893Z,11.65
2023-05-20T14:09:00.112Z,11.80
2023-05-20T14:11:27.571Z,10.30
2023-05-20T14:13:54.486Z,10.15
2023-05-20T14:16:21.766Z,10.40
2023-05-20T14:18:48.955Z,10.27
2023-05-20T14:21:16.412Z,10.77
2023-05-20T14:23:45.051Z,11.35
2023-05-20T14:26:12.435Z,10.70
2023-05-20T14:28:39.730Z,10.73
2023-05-20T14:31:09.586Z,10.52
2023-05-20T14:33:36.977Z,10.77
2023-05-20T14:36:04.912Z,9.82
2023-05-20T14:38:31.889Z,10.60
2023-05-20T14:40:59.454Z,9.75
2023-05-20T14:43:32.188Z,9.70
2023-05-20T14:46:00.219Z,9.88
2023-05-20T14:48:29.347Z,9.77
2023-05-20T14:50:56.772Z,9.82
2023-05-20T14:53:23.860Z,11.13
2023-05-20T14:55:51.275Z,11.00
2023-05-20T14:58:18.342Z,10.35
2023-05-20T15:00:45.812Z,10.48
2023-05-20T15:03:12.944Z,10.48
2023-05-20T15:05:41.219Z,10.70
2023-05-20T15:08:08.366Z,9.55
2023-05-20T15:10:36.137Z,9.80
2023-05-20T15:14:05.069Z,9.85
2023-05-20T15:16:48.691Z,9.65
2023-05-20T15:19:28.920Z,9.63
2023-05-20T15:22:00.975Z,9.57
2023-05-20T15:24:28.010Z,9.27
2023-05-20T15:26:55.455Z,9.82
2023-05-20T15:29:22.879Z,9.82
2023-05-20T15:31:50.298Z,9.88
2023-05-20T15:34:18.513Z,9.57
2023-05-20T15:36:49.270Z,10.00
2023-05-20T15:39:16.509Z,9.20
2023-05-20T15:41:43.792Z,9.38
2023-05-20T15:44:10.813Z,9.25
2023-05-20T15:46:38.236Z,8.98
2023-05-20T15:49:05.782Z,8.68
2023-05-20T15:51:33.193Z,9.40
2023-05-20T15:55:44.960Z,10.15
2023-05-20T15:58:12.806Z,8.85
2023-05-20T16:00:39.920Z,9.68
2023-05-20T16:03:58.526Z,8.50
2023-05-20T16:06:25.868Z,8.52
2023-05-20T16:09:05.371Z,8.80
2023-05-20T16:11:32.491Z,8.27
2023-05-20T16:13:59.788Z,8.05
2023-05-20T16:16:26.951Z,8.68
2023-05-20T16:18:54.329Z,8.48
2023-05-20T16:22:13.886Z,8.73
2023-05-20T16:24:42.653Z,8.70
2023-05-20T16:32:21.803Z,7.97
2023-05-20T16:34:49.329Z,8.02
2023-05-20T16:37:16.954Z,8.10
2023-05-20T16:40:41.606Z,7.88
2023-05-20T16:43:41.477Z,7.18
2023-05-20T16:47:06.970Z,6.95
2023-05-20T16:49:34.241Z,7.20
2023-05-20T16:52:01.713Z,6.90
2023-05-20T16:54:29.102Z,7.03
2023-05-20T16:57:32.216Z,6.90
2023-05-20T17:00:55.834Z,6.85
2023-05-20T17:08:39.834Z,7.57
2023-05-20T17:21:22.746Z,6.57
2023-05-20T17:23:50.230Z,7.15
2023-05-20T17:45:49.374Z,7.30
2023-05-20T17:48:45.114Z,7.15
2023-05-20T17:51:12.173Z,7.43
2023-05-20T17:53:39.401Z,7.10
2023-05-20T17:56:08.612Z,6.97
2023-05-20T17:58:35.987Z,7.90
2023-05-20T18:01:03.087Z,7.97
2023-05-20T18:03:30.604Z,7.85
2023-05-20T18:05:57.751Z,8.18
2023-05-20T18:08:27.936Z,7.13
2023-05-20T18:10:55.653Z,7.80
2023-05-20T18:13:22.847Z,8.38
2023-05-20T18:15:50.207Z,7.63
2023-05-20T18:18:17.450Z,7.78
2023-05-20T18:20:44.671Z,8.45
2023-05-20T18:23:12.265Z,7.88
2023-05-20T18:25:41.159Z,7.82
2023-05-20T18:28:13.188Z,8.10
2023-05-20T18:40:29.020Z,7.32
2023-05-20T18:42:56.321Z,7.40
2023-05-20T18:45:24.867Z,7.30
2023-05-20T18:47:54.400Z,6.97
2023-05-20T18:50:21.500Z,7.22
2023-05-20T18:52:48.882Z,7.35
2023-05-20T18:55:16.025Z,7.95
2023-05-20T18:57:43.767Z,7.93
2023-05-20T19:00:12.382Z,7.63
2023-05-20T19:02:41.717Z,7.90
2023-05-20T19:05:11.445Z,7.70
2023-05-20T19:07:39.517Z,7.28
2023-05-20T19:10:07.685Z,8.13
2023-05-20T19:12:35.026Z,7.85
2023-05-20T19:15:02.414Z,7.78
2023-05-20T19:17:30.445Z,7.93
2023-05-20T19:19:57.496Z,8.63
2023-05-20T19:22:24.848Z,9.55
2023-05-20T19:24:51.843Z,8.95
2023-05-20T19:27:20.108Z,8.88
2023-05-20T19:29:47.063Z,8.30
2023-05-20T19:32:14.331Z,8.70
2023-05-20T19:34:41.703Z,9.68
2023-05-20T19:37:09.456Z,7.72
2023-05-20T19:39:36.714Z,8.27
2023-05-20T19:42:04.469Z,8.50
2023-05-20T19:44:31.451Z,8.88
2023-05-20T19:46:58.877Z,8.45
2023-05-20T19:49:26.015Z,8.02
2023-05-20T19:51:53.376Z,8.05
2023-05-20T19:54:20.308Z,9.15
2023-05-20T20:04:06.893Z,7.57
2023-05-20T20:06:34.604Z,7.03
2023-05-20T20:09:01.618Z,7.10
2023-05-20T20:11:29.239Z,8.20
2023-05-20T20:13:58.339Z,8.30
2023-05-20T20:16:26.948Z,9.07
2023-05-20T20:18:54.677Z,8.40
2023-05-20T20:21:21.909Z,7.25
2023-05-20T20:23:48.877Z,6.93
2023-05-20T20:26:16.401Z,6.70
2023-05-20T20:28:43.464Z,6.55
2023-05-20T20:31:11.018Z,7.25
2023-05-20T20:33:37.962Z,6.55
2023-05-20T20:36:05.847Z,6.70
2023-05-20T20:38:33.026Z,6.63
2023-05-20T20:41:03.706Z,6.60
2023-05-20T20:43:30.854Z,9.02
2023-05-20T20:45:59.991Z,6.97
2023-05-20T20:48:27.597Z,6.97
2023-05-20T20:50:55.177Z,7.15
2023-05-20T20:53:22.330Z,8.55
2023-05-20T20:55:51.521Z,9.07
2023-05-20T20:58:18.978Z,10.43
2023-05-20T21:00:48.711Z,9.48
2023-05-20T21:03:16.168Z,9.65
2023-05-20T21:05:44.394Z,10.32
2023-05-20T21:08:13.280Z,11.00
2023-05-20T21:10:40.720Z,9.02
2023-05-20T21:13:07.821Z,10.18
2023-05-20T21:15:35.387Z,11.55
2023-05-20T21:18:02.621Z,11.85
2023-05-20T21:20:29.946Z,11.98
2023-05-20T21:22:56.923Z,12.43
2023-05-20T21:25:25.180Z,11.52
2023-05-20T21:27:52.433Z,12.27
2023-05-20T21:30:20.058Z,12.45
2023-05-20T21:32:47.129Z,12.63
2023-05-20T21:35:14.552Z,9.90
2023-05-20T21:37:41.601Z,10.20
2023-05-20T21:40:09.422Z,9.38
2023-05-20T21:42:36.543Z,9.98
2023-05-20T21:45:04.233Z,12.80
2023-05-20T21:47:31.303Z,13.40
2023-05-20T21:49:58.591Z,11.40
2023-05-20T21:52:25.709Z,12.85
2023-05-20T21:54:52.913Z,12.68
2023-05-20T21:57:19.995Z,11.88
2023-05-20T21:59:47.402Z,12.52
2023-05-20T22:02:14.443Z,12.95
2023-05-20T22:04:43.472Z,10.55
2023-05-20T22:07:10.716Z,12.45
2023-05-20T22:09:38.002Z,12.63
2023-05-20T22:13:45.716Z,12.57
2023-05-20T22:16:14.175Z,12.65
2023-05-20T22:18:42.610Z,12.50
2023-05-20T22:21:10.148Z,14.10
2023-05-20T22:23:37.121Z,13.55
2023-05-20T22:26:04.851Z,10.13
2023-05-20T22:28:31.932Z,9.07
2023-05-20T22:30:59.191Z,12.13
2023-05-20T22:33:26.779Z,13.55
2023-05-20T22:35:54.025Z,13.05
2023-05-20T22:38:21.298Z,13.60
2023-05-20T22:40:48.691Z,13.38
2023-05-20T22:43:16.508Z,13.65
2023-05-20T22:45:43.989Z,13.20
2023-05-20T22:48:23.686Z,14.15
2023-05-20T23:06:59.556Z,15.27
2023-05-20T23:09:27.025Z,16.27
2023-05-20T23:11:53.988Z,15.63
2023-05-20T23:14:21.365Z,15.07
2023-05-20T23:16:48.507Z,14.93
2023-05-20T23:19:16.731Z,15.48
2023-05-20T23:21:44.011Z,15.48
2023-05-20T23:24:11.938Z,16.13
2023-05-20T23:26:39.519Z,15.65
2023-05-20T23:29:06.844Z,15.50
2023-05-20T23:31:33.908Z,15.45
2023-05-20T23:34:03.449Z,16.00
2023-05-20T23:36:34.553Z,16.38
2023-05-20T23:39:03.247Z,15.90
2023-05-20T23:41:30.216Z,14.70
2023-05-20T23:43:57.558Z,15.18
2023-05-20T23:46:24.568Z,16.42
2023-05-20T23:48:52.912Z,15.45
2023-05-20T23:51:19.892Z,14.75
2023-05-20T23:53:47.144Z,14.38
2023-05-20T23:56:14.172Z,11.95
2023-05-20T23:58:41.474Z,15.55
